Station Historical Data
Daily Summary for May 31, 2017 Units:  Both    English   Metric
« Previous Day
Next Day »
Daily Weekly Monthly Yearly Custom
  High: Low: Average:
Temperature: 72.4 °F /  22.4 °C 54.7 °F /  12.6 °C 64 °F /  17.8 °C
Dew Point: 53.5 °F /  11.9 °C 46.0 °F /  7.8 °C 49.9 °F /  9.9 °C
Humidity: 81% 41% 61%
Wind Speed: 17.0mph /  27.4km/h - 5.3mph /  8.5km/h
Wind Gust: 24.0mph /  38.6km/h - -
Wind- - SW
Pressure: 29.94 in /  1013.8 hPa 29.85 in /  1010.7 hPa -
Precipitation: 0.00 in /  0 mm    
Historical Graphs
 
 
Tabular Data for May 31, 2017
Time Temperature Dew Point Pressure Wind Wind Speed Wind Gust Humidity Rainfall Rate (Hourly)
00:04 64.1 °F /  17.8 °C 48.1 °F /  8.9 °C 29.90in /  1012.4hPa SW 2.0mph /  3.2km/h 7.0mph /  11.3km/h 56% 0.00in /  0mm
00:09 64.2 °F /  17.9 °C 47.7 °F /  8.7 °C 29.90in /  1012.4hPa SW 3.0mph /  4.8km/h 11.0mph /  17.7km/h 55% 0.00in /  0mm
00:14 64.3 °F /  17.9 °C 47.8 °F /  8.8 °C 29.90in /  1012.4hPa SSW 2.0mph /  3.2km/h 7.0mph /  11.3km/h 55% 0.00in /  0mm
00:19 64.6 °F /  18.1 °C 47.6 °F /  8.7 °C 29.90in /  1012.4hPa WSW 3.0mph /  4.8km/h 7.0mph /  11.3km/h 54% 0.00in /  0mm
00:24 64.8 °F /  18.2 °C 47.8 °F /  8.8 °C 29.90in /  1012.4hPa SW 3.0mph /  4.8km/h 8.0mph /  12.9km/h 54% 0.00in /  0mm
00:29 65.1 °F /  18.4 °C 47.5 °F /  8.6 °C 29.91in /  1012.8hPa WSW 4.0mph /  6.4km/h 9.0mph /  14.5km/h 53% 0.00in /  0mm
00:34 65.6 °F /  18.7 °C 47.5 °F /  8.6 °C 29.91in /  1012.8hPa West 5.0mph /  8km/h 15.0mph /  24.1km/h 52% 0.00in /  0mm
00:39 65.8 °F /  18.8 °C 48.2 °F /  9 °C 29.91in /  1012.8hPa SW 7.0mph /  11.3km/h 15.0mph /  24.1km/h 53% 0.00in /  0mm
00:44 65.6 °F /  18.7 °C 48.0 °F /  8.9 °C 29.91in /  1012.8hPa SW 6.0mph /  9.7km/h 16.0mph /  25.7km/h 53% 0.00in /  0mm
00:49 65.3 °F /  18.5 °C 48.7 °F /  9.3 °C 29.90in /  1012.4hPa SW 6.0mph /  9.7km/h 16.0mph /  25.7km/h 55% 0.00in /  0mm
00:54 64.6 °F /  18.1 °C 48.5 °F /  9.2 °C 29.91in /  1012.8hPa SW 6.0mph /  9.7km/h 15.0mph /  24.1km/h 56% 0.00in /  0mm
00:59 64.1 °F /  17.8 °C 49.0 °F /  9.4 °C 29.91in /  1012.8hPa SW 4.0mph /  6.4km/h 10.0mph /  16.1km/h 58% 0.00in /  0mm
01:09 63.5 °F /  17.5 °C 49.4 °F /  9.7 °C 29.91in /  1012.8hPa WNW 6.0mph /  9.7km/h 11.0mph /  17.7km/h 60% 0.00in /  0mm
01:14 63.4 °F /  17.4 °C 49.3 °F /  9.6 °C 29.91in /  1012.8hPa SW 5.0mph /  8km/h 12.0mph /  19.3km/h 60% 0.00in /  0mm
01:19 63.0 °F /  17.2 °C 49.3 °F /  9.6 °C 29.91in /  1012.8hPa SW 5.0mph /  8km/h 12.0mph /  19.3km/h 61% 0.00in /  0mm
01:24 62.8 °F /  17.1 °C 49.1 °F /  9.5 °C 29.91in /  1012.8hPa SSW 3.0mph /  4.8km/h 9.0mph /  14.5km/h 61% 0.00in /  0mm
01:29 62.6 °F /  17 °C 49.0 °F /  9.4 °C 29.91in /  1012.8hPa SW 5.0mph /  8km/h 10.0mph /  16.1km/h 61% 0.00in /  0mm
01:34 62.4 °F /  16.9 °C 49.2 °F /  9.6 °C 29.91in /  1012.8hPa SW 8.0mph /  12.9km/h 10.0mph /  16.1km/h 62% 0.00in /  0mm
01:39 62.2 °F /  16.8 °C 49.0 °F /  9.4 °C 29.91in /  1012.8hPa SW 4.0mph /  6.4km/h 10.0mph /  16.1km/h 62% 0.00in /  0mm
01:44 62.1 °F /  16.7 °C 48.9 °F /  9.4 °C 29.91in /  1012.8hPa SW 4.0mph /  6.4km/h 10.0mph /  16.1km/h 62% 0.00in /  0mm
01:49 62.0 °F /  16.7 °C 48.8 °F /  9.3 °C 29.91in /  1012.8hPa SSW 7.0mph /  11.3km/h 10.0mph /  16.1km/h 62% 0.00in /  0mm
01:54 62.2 °F /  16.8 °C 49.0 °F /  9.4 °C 29.91in /  1012.8hPa WSW 2.0mph /  3.2km/h 7.0mph /  11.3km/h 62% 0.00in /  0mm
01:59 62.1 °F /  16.7 °C 48.9 °F /  9.4 °C 29.92in /  1013.1hPa WSW 3.0mph /  4.8km/h 12.0mph /  19.3km/h 62% 0.00in /  0mm
02:04 62.1 °F /  16.7 °C 49.4 °F /  9.7 °C 29.92in /  1013.1hPa SW 3.0mph /  4.8km/h 9.0mph /  14.5km/h 63% 0.00in /  0mm
02:09 62.2 °F /  16.8 °C 49.4 °F /  9.7 °C 29.92in /  1013.1hPa West 6.0mph /  9.7km/h 15.0mph /  24.1km/h 63% 0.00in /  0mm
02:14 62.2 °F /  16.8 °C 49.4 °F /  9.7 °C 29.92in /  1013.1hPa WSW 6.0mph /  9.7km/h 15.0mph /  24.1km/h 63% 0.00in /  0mm
02:19 62.0 °F /  16.7 °C 50.1 °F /  10.1 °C 29.92in /  1013.1hPa WSW 6.0mph /  9.7km/h 11.0mph /  17.7km/h 65% 0.00in /  0mm
02:24 61.5 °F /  16.4 °C 50.4 °F /  10.2 °C 29.92in /  1013.1hPa WSW 6.0mph /  9.7km/h 11.0mph /  17.7km/h 67% 0.00in /  0mm
02:29 61.0 °F /  16.1 °C 50.4 °F /  10.2 °C 29.92in /  1013.1hPa WSW 3.0mph /  4.8km/h 9.0mph /  14.5km/h 68% 0.00in /  0mm
02:34 60.7 °F /  15.9 °C 50.5 °F /  10.3 °C 29.92in /  1013.1hPa West 5.0mph /  8km/h 11.0mph /  17.7km/h 69% 0.00in /  0mm
02:39 60.4 °F /  15.8 °C 50.6 °F /  10.3 °C 29.92in /  1013.1hPa WSW 5.0mph /  8km/h 11.0mph /  17.7km/h 70% 0.00in /  0mm
02:44 60.1 °F /  15.6 °C 50.7 °F /  10.4 °C 29.92in /  1013.1hPa WSW 4.0mph /  6.4km/h 10.0mph /  16.1km/h 71% 0.00in /  0mm
02:49 59.9 °F /  15.5 °C 50.5 °F /  10.3 °C 29.93in /  1013.4hPa WSW 4.0mph /  6.4km/h 10.0mph /  16.1km/h 71% 0.00in /  0mm
02:54 59.9 °F /  15.5 °C 50.5 °F /  10.3 °C 29.93in /  1013.4hPa WSW 2.0mph /  3.2km/h 7.0mph /  11.3km/h 71% 0.00in /  0mm
02:59 59.7 °F /  15.4 °C 50.7 °F /  10.4 °C 29.92in /  1013.1hPa WSW 2.0mph /  3.2km/h 6.0mph /  9.7km/h 72% 0.00in /  0mm
03:04 59.6 °F /  15.3 °C 50.6 °F /  10.3 °C 29.93in /  1013.4hPa SW 2.0mph /  3.2km/h 7.0mph /  11.3km/h 72% 0.00in /  0mm
03:09 59.6 °F /  15.3 °C 50.9 °F /  10.5 °C 29.93in /  1013.4hPa WSW 3.0mph /  4.8km/h 7.0mph /  11.3km/h 73% 0.00in /  0mm
03:14 59.3 °F /  15.2 °C 50.6 °F /  10.3 °C 29.92in /  1013.1hPa WSW 3.0mph /  4.8km/h 7.0mph /  11.3km/h 73% 0.00in /  0mm
03:19 59.0 °F /  15 °C 50.7 °F /  10.4 °C 29.92in /  1013.1hPa WSW 2.0mph /  3.2km/h 4.0mph /  6.4km/h 74% 0.00in /  0mm
03:24 58.6 °F /  14.8 °C 50.3 °F /  10.2 °C 29.92in /  1013.1hPa WSW 2.0mph /  3.2km/h 4.0mph /  6.4km/h 74% 0.00in /  0mm
03:29 58.1 °F /  14.5 °C 50.2 °F /  10.1 °C 29.92in /  1013.1hPa SW 2.0mph /  3.2km/h 4.0mph /  6.4km/h 75% 0.00in /  0mm
03:34 57.8 °F /  14.3 °C 50.3 °F /  10.2 °C 29.92in /  1013.1hPa Calm   3.0mph /  4.8km/h 76% 0.00in /  0mm
03:39 57.4 °F /  14.1 °C 49.9 °F /  9.9 °C 29.92in /  1013.1hPa SW 1.0mph /  1.6km/h 3.0mph /  4.8km/h 76% 0.00in /  0mm
03:49 57.8 °F /  14.3 °C 50.3 °F /  10.2 °C 29.92in /  1013.1hPa WSW 2.0mph /  3.2km/h 6.0mph /  9.7km/h 76% 0.00in /  0mm
03:54 57.8 °F /  14.3 °C 50.3 °F /  10.2 °C 29.92in /  1013.1hPa Calm   3.0mph /  4.8km/h 76% 0.00in /  0mm
03:59 57.8 °F /  14.3 °C 50.3 °F /  10.2 °C 29.92in /  1013.1hPa SW 2.0mph /  3.2km/h 5.0mph /  8km/h 76% 0.00in /  0mm
04:04 57.8 °F /  14.3 °C 50.3 °F /  10.2 °C 29.92in /  1013.1hPa SW 2.0mph /  3.2km/h 5.0mph /  8km/h 76% 0.00in /  0mm
04:09 57.8 °F /  14.3 °C 50.3 °F /  10.2 °C 29.92in /  1013.1hPa SW 2.0mph /  3.2km/h 5.0mph /  8km/h 76% 0.00in /  0mm
04:14 57.7 °F /  14.3 °C 50.5 °F /  10.3 °C 29.92in /  1013.1hPa SW 2.0mph /  3.2km/h 4.0mph /  6.4km/h 77% 0.00in /  0mm
04:19 57.5 °F /  14.2 °C 50.3 °F /  10.2 °C 29.92in /  1013.1hPa SW 2.0mph /  3.2km/h 4.0mph /  6.4km/h 77% 0.00in /  0mm
04:24 57.2 °F /  14 °C 50.4 °F /  10.2 °C 29.92in /  1013.1hPa SW 2.0mph /  3.2km/h 5.0mph /  8km/h 78% 0.00in /  0mm
04:29 57.0 °F /  13.9 °C 50.2 °F /  10.1 °C 29.92in /  1013.1hPa SW 2.0mph /  3.2km/h 6.0mph /  9.7km/h 78% 0.00in /  0mm
04:34 56.8 °F /  13.8 °C 50.0 °F /  10 °C 29.92in /  1013.1hPa SSW 3.0mph /  4.8km/h 4.0mph /  6.4km/h 78% 0.00in /  0mm
04:39 56.9 °F /  13.8 °C 50.5 °F /  10.3 °C 29.92in /  1013.1hPa SW 2.0mph /  3.2km/h 4.0mph /  6.4km/h 79% 0.00in /  0mm
04:44 56.7 °F /  13.7 °C 50.3 °F /  10.2 °C 29.92in /  1013.1hPa SW 2.0mph /  3.2km/h 4.0mph /  6.4km/h 79% 0.00in /  0mm
04:49 56.5 °F /  13.6 °C 50.1 °F /  10.1 °C 29.92in /  1013.1hPa SSW 1.0mph /  1.6km/h 5.0mph /  8km/h 79% 0.00in /  0mm
04:54 56.5 °F /  13.6 °C 50.1 °F /  10.1 °C 29.92in /  1013.1hPa SSW 2.0mph /  3.2km/h 6.0mph /  9.7km/h 79% 0.00in /  0mm
04:59 56.3 °F /  13.5 °C 49.9 °F /  9.9 °C 29.92in /  1013.1hPa Calm   3.0mph /  4.8km/h 79% 0.00in /  0mm
05:04 55.9 °F /  13.3 °C 49.8 °F /  9.9 °C 29.92in /  1013.1hPa Calm   3.0mph /  4.8km/h 80% 0.00in /  0mm
05:09 55.5 °F /  13.1 °C 49.4 °F /  9.7 °C 29.92in /  1013.1hPa Calm   3.0mph /  4.8km/h 80% 0.00in /  0mm
05:14 55.2 °F /  12.9 °C 49.1 °F /  9.5 °C 29.92in /  1013.1hPa Calm     80% 0.00in /  0mm
05:19 55.0 °F /  12.8 °C 49.3 °F /  9.6 °C 29.92in /  1013.1hPa Calm     81% 0.00in /  0mm
05:24 54.7 °F /  12.6 °C 49.0 °F /  9.4 °C 29.92in /  1013.1hPa Calm     81% 0.00in /  0mm
05:29 54.7 °F /  12.6 °C 48.6 °F /  9.2 °C 29.92in /  1013.1hPa Calm     80% 0.00in /  0mm
05:34 54.7 °F /  12.6 °C 48.6 °F /  9.2 °C 29.92in /  1013.1hPa South 1.0mph /  1.6km/h 4.0mph /  6.4km/h 80% 0.00in /  0mm
05:39 54.8 °F /  12.7 °C 48.4 °F /  9.1 °C 29.92in /  1013.1hPa Calm   4.0mph /  6.4km/h 79% 0.00in /  0mm
05:44 54.9 °F /  12.7 °C 48.2 °F /  9 °C 29.92in /  1013.1hPa South 1.0mph /  1.6km/h 5.0mph /  8km/h 78% 0.00in /  0mm
05:49 55.0 °F /  12.8 °C 47.9 °F /  8.8 °C 29.92in /  1013.1hPa South 2.0mph /  3.2km/h 4.0mph /  6.4km/h 77% 0.00in /  0mm
05:59 55.1 °F /  12.8 °C 47.7 °F /  8.7 °C 29.92in /  1013.1hPa South 1.0mph /  1.6km/h 5.0mph /  8km/h 76% 0.00in /  0mm
06:04 55.0 °F /  12.8 °C 47.6 °F /  8.7 °C 29.92in /  1013.1hPa Calm   5.0mph /  8km/h 76% 0.00in /  0mm
06:09 54.9 °F /  12.7 °C 47.5 °F /  8.6 °C 29.92in /  1013.1hPa South 2.0mph /  3.2km/h 5.0mph /  8km/h 76% 0.00in /  0mm
06:14 54.9 °F /  12.7 °C 47.5 °F /  8.6 °C 29.92in /  1013.1hPa SSW 1.0mph /  1.6km/h 4.0mph /  6.4km/h 76% 0.00in /  0mm
06:19 54.9 °F /  12.7 °C 47.5 °F /  8.6 °C 29.92in /  1013.1hPa South 1.0mph /  1.6km/h 4.0mph /  6.4km/h 76% 0.00in /  0mm
06:24 55.1 °F /  12.8 °C 47.7 °F /  8.7 °C 29.92in /  1013.1hPa South 1.0mph /  1.6km/h 4.0mph /  6.4km/h 76% 0.00in /  0mm
06:29 55.2 °F /  12.9 °C 47.8 °F /  8.8 °C 29.92in /  1013.1hPa South 3.0mph /  4.8km/h 3.0mph /  4.8km/h 76% 0.00in /  0mm
06:34 55.4 °F /  13 °C 47.6 °F /  8.7 °C 29.92in /  1013.1hPa South 2.0mph /  3.2km/h 4.0mph /  6.4km/h 75% 0.00in /  0mm
06:39 55.9 °F /  13.3 °C 48.1 °F /  8.9 °C 29.92in /  1013.1hPa South 2.0mph /  3.2km/h 6.0mph /  9.7km/h 75% 0.00in /  0mm
06:44 56.4 °F /  13.6 °C 48.2 °F /  9 °C 29.92in /  1013.1hPa SSE 2.0mph /  3.2km/h 6.0mph /  9.7km/h 74% 0.00in /  0mm
06:49 56.8 °F /  13.8 °C 48.2 °F /  9 °C 29.92in /  1013.1hPa South 3.0mph /  4.8km/h 6.0mph /  9.7km/h 73% 0.00in /  0mm
06:54 57.2 °F /  14 °C 48.3 °F /  9.1 °C 29.92in /  1013.1hPa South 3.0mph /  4.8km/h 6.0mph /  9.7km/h 72% 0.00in /  0mm
06:59 57.7 °F /  14.3 °C 48.4 °F /  9.1 °C 29.92in /  1013.1hPa South 2.0mph /  3.2km/h 6.0mph /  9.7km/h 71% 0.00in /  0mm
07:04 58.2 °F /  14.6 °C 48.8 °F /  9.3 °C 29.92in /  1013.1hPa Calm   4.0mph /  6.4km/h 71% 0.00in /  0mm
07:09 58.9 °F /  14.9 °C 49.1 °F /  9.5 °C 29.92in /  1013.1hPa SSW 2.0mph /  3.2km/h 3.0mph /  4.8km/h 70% 0.00in /  0mm
07:14 59.0 °F /  15 °C 48.8 °F /  9.3 °C 29.92in /  1013.1hPa SSW 2.0mph /  3.2km/h 6.0mph /  9.7km/h 69% 0.00in /  0mm
07:19 59.3 °F /  15.2 °C 49.1 °F /  9.5 °C 29.92in /  1013.1hPa South 1.0mph /  1.6km/h 4.0mph /  6.4km/h 69% 0.00in /  0mm
07:24 59.7 °F /  15.4 °C 48.7 °F /  9.3 °C 29.92in /  1013.1hPa South 2.0mph /  3.2km/h 7.0mph /  11.3km/h 67% 0.00in /  0mm
07:29 59.7 °F /  15.4 °C 48.7 °F /  9.3 °C 29.92in /  1013.1hPa SSW 3.0mph /  4.8km/h 4.0mph /  6.4km/h 67% 0.00in /  0mm
07:34 59.6 °F /  15.3 °C 49.0 °F /  9.4 °C 29.92in /  1013.1hPa SSW 2.0mph /  3.2km/h 6.0mph /  9.7km/h 68% 0.00in /  0mm
07:39 59.7 °F /  15.4 °C 49.1 °F /  9.5 °C 29.92in /  1013.1hPa SSW 2.0mph /  3.2km/h 6.0mph /  9.7km/h 68% 0.00in /  0mm
07:44 60.0 °F /  15.6 °C 49.4 °F /  9.7 °C 29.92in /  1013.1hPa SSW 2.0mph /  3.2km/h 5.0mph /  8km/h 68% 0.00in /  0mm
07:49 60.5 °F /  15.8 °C 49.5 °F /  9.7 °C 29.92in /  1013.1hPa SSW 2.0mph /  3.2km/h 5.0mph /  8km/h 67% 0.00in /  0mm
07:54 60.9 °F /  16.1 °C 49.5 °F /  9.7 °C 29.92in /  1013.1hPa SSW 2.0mph /  3.2km/h 4.0mph /  6.4km/h 66% 0.00in /  0mm
07:59 61.1 °F /  16.2 °C 49.2 °F /  9.6 °C 29.92in /  1013.1hPa SW 2.0mph /  3.2km/h 5.0mph /  8km/h 65% 0.00in /  0mm
08:04 61.3 °F /  16.3 °C 49.4 °F /  9.7 °C 29.92in /  1013.1hPa SW 2.0mph /  3.2km/h 5.0mph /  8km/h 65% 0.00in /  0mm
08:09 62.2 °F /  16.8 °C 49.9 °F /  9.9 °C 29.92in /  1013.1hPa Calm   4.0mph /  6.4km/h 64% 0.00in /  0mm
08:14 62.8 °F /  17.1 °C 49.1 °F /  9.5 °C 29.92in /  1013.1hPa SSW 1.0mph /  1.6km/h 9.0mph /  14.5km/h 61% 0.00in /  0mm
08:19 63.4 °F /  17.4 °C 49.3 °F /  9.6 °C 29.92in /  1013.1hPa SSW 4.0mph /  6.4km/h 6.0mph /  9.7km/h 60% 0.00in /  0mm
08:24 63.5 °F /  17.5 °C 49.4 °F /  9.7 °C 29.93in /  1013.4hPa WSW 2.0mph /  3.2km/h 8.0mph /  12.9km/h 60% 0.00in /  0mm
08:29 64.5 °F /  18.1 °C 49.8 °F /  9.9 °C 29.93in /  1013.4hPa SSW 7.0mph /  11.3km/h 11.0mph /  17.7km/h 59% 0.00in /  0mm
08:34 64.9 °F /  18.3 °C 49.3 °F /  9.6 °C 29.92in /  1013.1hPa South 4.0mph /  6.4km/h 11.0mph /  17.7km/h 57% 0.00in /  0mm
08:39 65.6 °F /  18.7 °C 50.0 °F /  10 °C 29.92in /  1013.1hPa SW 8.0mph /  12.9km/h 14.0mph /  22.5km/h 57% 0.00in /  0mm
08:44 65.0 °F /  18.3 °C 48.9 °F /  9.4 °C 29.93in /  1013.4hPa SW 6.0mph /  9.7km/h 14.0mph /  22.5km/h 56% 0.00in /  0mm
08:49 64.5 °F /  18.1 °C 48.9 °F /  9.4 °C 29.93in /  1013.4hPa SW 7.0mph /  11.3km/h 15.0mph /  24.1km/h 57% 0.00in /  0mm
08:54 63.9 °F /  17.7 °C 48.4 °F /  9.1 °C 29.93in /  1013.4hPa SW 7.0mph /  11.3km/h 17.0mph /  27.4km/h 57% 0.00in /  0mm
08:59 63.6 °F /  17.6 °C 48.5 °F /  9.2 °C 29.94in /  1013.8hPa WSW 8.0mph /  12.9km/h 17.0mph /  27.4km/h 58% 0.00in /  0mm
09:04 63.2 °F /  17.3 °C 49.1 °F /  9.5 °C 29.93in /  1013.4hPa SW 8.0mph /  12.9km/h 17.0mph /  27.4km/h 60% 0.00in /  0mm
09:09 62.6 °F /  17 °C 49.4 °F /  9.7 °C 29.94in /  1013.8hPa SW 7.0mph /  11.3km/h 18.0mph /  29km/h 62% 0.00in /  0mm
09:14 62.0 °F /  16.7 °C 50.1 °F /  10.1 °C 29.93in /  1013.4hPa SSW 7.0mph /  11.3km/h 14.0mph /  22.5km/h 65% 0.00in /  0mm
09:19 62.0 °F /  16.7 °C 49.7 °F /  9.8 °C 29.93in /  1013.4hPa SSW 7.0mph /  11.3km/h 18.0mph /  29km/h 64% 0.00in /  0mm
09:24 62.5 °F /  16.9 °C 50.6 °F /  10.3 °C 29.93in /  1013.4hPa SW 5.0mph /  8km/h 13.0mph /  20.9km/h 65% 0.00in /  0mm
09:29 63.2 °F /  17.3 °C 50.4 °F /  10.2 °C 29.92in /  1013.1hPa SW 8.0mph /  12.9km/h 13.0mph /  20.9km/h 63% 0.00in /  0mm
09:34 64.7 °F /  18.2 °C 50.9 °F /  10.5 °C 29.92in /  1013.1hPa SW 7.0mph /  11.3km/h 13.0mph /  20.9km/h 61% 0.00in /  0mm
09:39 65.9 °F /  18.8 °C 51.2 °F /  10.7 °C 29.92in /  1013.1hPa SW 7.0mph /  11.3km/h 13.0mph /  20.9km/h 59% 0.00in /  0mm
09:44 66.8 °F /  19.3 °C 50.6 °F /  10.3 °C 29.92in /  1013.1hPa SW 6.0mph /  9.7km/h 13.0mph /  20.9km/h 56% 0.00in /  0mm
09:49 67.4 °F /  19.7 °C 50.7 °F /  10.4 °C 29.92in /  1013.1hPa SW 6.0mph /  9.7km/h 14.0mph /  22.5km/h 55% 0.00in /  0mm
09:54 67.7 °F /  19.8 °C 50.9 °F /  10.5 °C 29.92in /  1013.1hPa SW 6.0mph /  9.7km/h 14.0mph /  22.5km/h 55% 0.00in /  0mm
09:59 67.4 °F /  19.7 °C 47.6 °F /  8.7 °C 29.92in /  1013.1hPa South 10.0mph /  16.1km/h 17.0mph /  27.4km/h 49% 0.00in /  0mm
10:04 67.4 °F /  19.7 °C 48.1 °F /  8.9 °C 29.92in /  1013.1hPa WSW 11.0mph /  17.7km/h 15.0mph /  24.1km/h 50% 0.00in /  0mm
10:09 67.9 °F /  19.9 °C 48.6 °F /  9.2 °C 29.92in /  1013.1hPa SW 8.0mph /  12.9km/h 15.0mph /  24.1km/h 50% 0.00in /  0mm
10:14 68.0 °F /  20 °C 48.1 °F /  8.9 °C 29.91in /  1012.8hPa SW 7.0mph /  11.3km/h 14.0mph /  22.5km/h 49% 0.00in /  0mm
10:24 69.3 °F /  20.7 °C 48.8 °F /  9.3 °C 29.91in /  1012.8hPa SW 5.0mph /  8km/h 15.0mph /  24.1km/h 48% 0.00in /  0mm
10:29 69.1 °F /  20.6 °C 49.7 °F /  9.8 °C 29.91in /  1012.8hPa SW 6.0mph /  9.7km/h 15.0mph /  24.1km/h 50% 0.00in /  0mm
10:34 69.5 °F /  20.8 °C 48.4 °F /  9.1 °C 29.91in /  1012.8hPa WSW 5.0mph /  8km/h 11.0mph /  17.7km/h 47% 0.00in /  0mm
10:39 69.2 °F /  20.7 °C 49.2 °F /  9.6 °C 29.91in /  1012.8hPa WSW 6.0mph /  9.7km/h 13.0mph /  20.9km/h 49% 0.00in /  0mm
10:44 70.0 °F /  21.1 °C 48.8 °F /  9.3 °C 29.91in /  1012.8hPa SW 6.0mph /  9.7km/h 13.0mph /  20.9km/h 47% 0.00in /  0mm
10:49 69.7 °F /  20.9 °C 48.6 °F /  9.2 °C 29.91in /  1012.8hPa SW 6.0mph /  9.7km/h 16.0mph /  25.7km/h 47% 0.00in /  0mm
10:54 70.3 °F /  21.3 °C 49.1 °F /  9.5 °C 29.91in /  1012.8hPa WSW 7.0mph /  11.3km/h 16.0mph /  25.7km/h 47% 0.00in /  0mm
10:59 70.6 °F /  21.4 °C 47.6 °F /  8.7 °C 29.91in /  1012.8hPa WSW 5.0mph /  8km/h 15.0mph /  24.1km/h 44% 0.00in /  0mm
11:04 70.7 °F /  21.5 °C 48.3 °F /  9.1 °C 29.90in /  1012.4hPa SW 8.0mph /  12.9km/h 16.0mph /  25.7km/h 45% 0.00in /  0mm
11:09 71.0 °F /  21.7 °C 48.6 °F /  9.2 °C 29.91in /  1012.8hPa SW 9.0mph /  14.5km/h 14.0mph /  22.5km/h 45% 0.00in /  0mm
11:14 71.0 °F /  21.7 °C 48.0 °F /  8.9 °C 29.90in /  1012.4hPa WSW 7.0mph /  11.3km/h 14.0mph /  22.5km/h 44% 0.00in /  0mm
11:19 71.0 °F /  21.7 °C 48.0 °F /  8.9 °C 29.90in /  1012.4hPa SW 8.0mph /  12.9km/h 20.0mph /  32.2km/h 44% 0.00in /  0mm
11:24 71.3 °F /  21.8 °C 47.6 °F /  8.7 °C 29.90in /  1012.4hPa SW 9.0mph /  14.5km/h 20.0mph /  32.2km/h 43% 0.00in /  0mm
11:29 71.7 °F /  22.1 °C 48.0 °F /  8.9 °C 29.90in /  1012.4hPa WSW 9.0mph /  14.5km/h 16.0mph /  25.7km/h 43% 0.00in /  0mm
11:34 71.7 °F /  22.1 °C 46.7 °F /  8.2 °C 29.90in /  1012.4hPa WSW 8.0mph /  12.9km/h 16.0mph /  25.7km/h 41% 0.00in /  0mm
11:39 71.7 °F /  22.1 °C 48.6 °F /  9.2 °C 29.91in /  1012.8hPa SSW 12.0mph /  19.3km/h 22.0mph /  35.4km/h 44% 0.00in /  0mm
11:44 71.5 °F /  21.9 °C 47.2 °F /  8.4 °C 29.91in /  1012.8hPa SW 9.0mph /  14.5km/h 22.0mph /  35.4km/h 42% 0.00in /  0mm
11:49 70.8 °F /  21.6 °C 47.2 °F /  8.4 °C 29.91in /  1012.8hPa SW 9.0mph /  14.5km/h 15.0mph /  24.1km/h 43% 0.00in /  0mm
11:54 70.2 °F /  21.2 °C 46.0 °F /  7.8 °C 29.90in /  1012.4hPa WSW 6.0mph /  9.7km/h 22.0mph /  35.4km/h 42% 0.00in /  0mm
11:59 70.1 °F /  21.2 °C 46.6 °F /  8.1 °C 29.90in /  1012.4hPa WNW 6.0mph /  9.7km/h 24.0mph /  38.6km/h 43% 0.00in /  0mm
12:04 71.0 °F /  21.7 °C 48.0 °F /  8.9 °C 29.90in /  1012.4hPa West 7.0mph /  11.3km/h 13.0mph /  20.9km/h 44% 0.00in /  0mm
12:09 71.3 °F /  21.8 °C 48.3 °F /  9.1 °C 29.90in /  1012.4hPa WSW 6.0mph /  9.7km/h 17.0mph /  27.4km/h 44% 0.00in /  0mm
12:14 71.4 °F /  21.9 °C 48.3 °F /  9.1 °C 29.90in /  1012.4hPa WSW 8.0mph /  12.9km/h 17.0mph /  27.4km/h 44% 0.00in /  0mm
12:19 71.4 °F /  21.9 °C 48.3 °F /  9.1 °C 29.90in /  1012.4hPa WSW 8.0mph /  12.9km/h 16.0mph /  25.7km/h 44% 0.00in /  0mm
12:24 71.0 °F /  21.7 °C 47.4 °F /  8.6 °C 29.90in /  1012.4hPa WSW 8.0mph /  12.9km/h 17.0mph /  27.4km/h 43% 0.00in /  0mm
12:29 69.4 °F /  20.8 °C 47.7 °F /  8.7 °C 29.90in /  1012.4hPa WSW 9.0mph /  14.5km/h 19.0mph /  30.6km/h 46% 0.00in /  0mm
12:34 70.0 °F /  21.1 °C 49.4 °F /  9.7 °C 29.90in /  1012.4hPa SW 17.0mph /  27.4km/h 18.0mph /  29km/h 48% 0.00in /  0mm
12:39 69.9 °F /  21.1 °C 50.4 °F /  10.2 °C 29.90in /  1012.4hPa WNW 5.0mph /  8km/h 19.0mph /  30.6km/h 50% 0.00in /  0mm
12:44 69.4 °F /  20.8 °C 48.3 °F /  9.1 °C 29.90in /  1012.4hPa WSW 10.0mph /  16.1km/h 20.0mph /  32.2km/h 47% 0.00in /  0mm
12:49 69.6 °F /  20.9 °C 48.5 °F /  9.2 °C 29.90in /  1012.4hPa WSW 10.0mph /  16.1km/h 20.0mph /  32.2km/h 47% 0.00in /  0mm
12:54 69.7 °F /  20.9 °C 49.1 °F /  9.5 °C 29.90in /  1012.4hPa WSW 8.0mph /  12.9km/h 19.0mph /  30.6km/h 48% 0.00in /  0mm
12:59 70.3 °F /  21.3 °C 49.1 °F /  9.5 °C 29.89in /  1012.1hPa WSW 6.0mph /  9.7km/h 21.0mph /  33.8km/h 47% 0.00in /  0mm
13:04 70.1 °F /  21.2 °C 50.0 °F /  10 °C 29.89in /  1012.1hPa SSW 7.0mph /  11.3km/h 17.0mph /  27.4km/h 49% 0.00in /  0mm
13:09 70.0 °F /  21.1 °C 49.4 °F /  9.7 °C 29.90in /  1012.4hPa WSW 9.0mph /  14.5km/h 23.0mph /  37km/h 48% 0.00in /  0mm
13:14 69.3 °F /  20.7 °C 50.4 °F /  10.2 °C 29.89in /  1012.1hPa SW 10.0mph /  16.1km/h 23.0mph /  37km/h 51% 0.00in /  0mm
13:19 69.1 °F /  20.6 °C 49.7 °F /  9.8 °C 29.89in /  1012.1hPa SSW 6.0mph /  9.7km/h 18.0mph /  29km/h 50% 0.00in /  0mm
13:24 69.6 °F /  20.9 °C 51.2 °F /  10.7 °C 29.89in /  1012.1hPa SW 5.0mph /  8km/h 15.0mph /  24.1km/h 52% 0.00in /  0mm
13:29 69.8 °F /  21 °C 51.4 °F /  10.8 °C 29.89in /  1012.1hPa SW 5.0mph /  8km/h 13.0mph /  20.9km/h 52% 0.00in /  0mm
13:34 70.3 °F /  21.3 °C 49.7 °F /  9.8 °C 29.89in /  1012.1hPa West 8.0mph /  12.9km/h 16.0mph /  25.7km/h 48% 0.00in /  0mm
13:39 70.6 °F /  21.4 °C 51.1 °F /  10.6 °C 29.88in /  1011.7hPa SW 4.0mph /  6.4km/h 14.0mph /  22.5km/h 50% 0.00in /  0mm
13:44 71.1 °F /  21.7 °C 50.4 °F /  10.2 °C 29.88in /  1011.7hPa WSW 7.0mph /  11.3km/h 17.0mph /  27.4km/h 48% 0.00in /  0mm
13:49 70.3 °F /  21.3 °C 49.7 °F /  9.8 °C 29.88in /  1011.7hPa WSW 8.0mph /  12.9km/h 17.0mph /  27.4km/h 48% 0.00in /  0mm
13:54 70.6 °F /  21.4 °C 50.5 °F /  10.3 °C 29.87in /  1011.4hPa WSW 8.0mph /  12.9km/h 15.0mph /  24.1km/h 49% 0.00in /  0mm
13:59 70.7 °F /  21.5 °C 50.0 °F /  10 °C 29.87in /  1011.4hPa WSW 7.0mph /  11.3km/h 15.0mph /  24.1km/h 48% 0.00in /  0mm
14:04 70.8 °F /  21.6 °C 49.6 °F /  9.8 °C 29.87in /  1011.4hPa West 7.0mph /  11.3km/h 14.0mph /  22.5km/h 47% 0.00in /  0mm
14:09 71.8 °F /  22.1 °C 50.5 °F /  10.3 °C 29.86in /  1011.1hPa SW 4.0mph /  6.4km/h 13.0mph /  20.9km/h 47% 0.00in /  0mm
14:14 72.4 °F /  22.4 °C 51.0 °F /  10.6 °C 29.86in /  1011.1hPa WSW 6.0mph /  9.7km/h 13.0mph /  20.9km/h 47% 0.00in /  0mm
14:19 72.1 °F /  22.3 °C 49.0 °F /  9.4 °C 29.86in /  1011.1hPa SW 8.0mph /  12.9km/h 15.0mph /  24.1km/h 44% 0.00in /  0mm
14:24 71.7 °F /  22.1 °C 48.0 °F /  8.9 °C 29.86in /  1011.1hPa West 8.0mph /  12.9km/h 14.0mph /  22.5km/h 43% 0.00in /  0mm
14:29 71.2 °F /  21.8 °C 47.6 °F /  8.7 °C 29.86in /  1011.1hPa SW 13.0mph /  20.9km/h 18.0mph /  29km/h 43% 0.00in /  0mm
14:34 71.3 °F /  21.8 °C 48.3 °F /  9.1 °C 29.86in /  1011.1hPa SW 15.0mph /  24.1km/h 18.0mph /  29km/h 44% 0.00in /  0mm
14:39 71.5 °F /  21.9 °C 48.4 °F /  9.1 °C 29.86in /  1011.1hPa West 8.0mph /  12.9km/h 17.0mph /  27.4km/h 44% 0.00in /  0mm
14:44 71.9 °F /  22.2 °C 48.8 °F /  9.3 °C 29.86in /  1011.1hPa WSW 8.0mph /  12.9km/h 19.0mph /  30.6km/h 44% 0.00in /  0mm
14:49 71.3 °F /  21.8 °C 47.6 °F /  8.7 °C 29.86in /  1011.1hPa WSW 9.0mph /  14.5km/h 19.0mph /  30.6km/h 43% 0.00in /  0mm
14:54 71.6 °F /  22 °C 50.3 °F /  10.2 °C 29.86in /  1011.1hPa WSW 9.0mph /  14.5km/h 17.0mph /  27.4km/h 47% 0.00in /  0mm
14:59 72.2 °F /  22.3 °C 49.1 °F /  9.5 °C 29.86in /  1011.1hPa WSW 8.0mph /  12.9km/h 17.0mph /  27.4km/h 44% 0.00in /  0mm
15:04 71.5 °F /  21.9 °C 48.4 °F /  9.1 °C 29.86in /  1011.1hPa WSW 8.0mph /  12.9km/h 16.0mph /  25.7km/h 44% 0.00in /  0mm
15:09 71.4 °F /  21.9 °C 48.9 °F /  9.4 °C 29.86in /  1011.1hPa WSW 9.0mph /  14.5km/h 18.0mph /  29km/h 45% 0.00in /  0mm
15:14 70.7 °F /  21.5 °C 48.3 °F /  9.1 °C 29.86in /  1011.1hPa SW 15.0mph /  24.1km/h 19.0mph /  30.6km/h 45% 0.00in /  0mm
15:19 70.8 °F /  21.6 °C 49.6 °F /  9.8 °C 29.86in /  1011.1hPa WSW 9.0mph /  14.5km/h 17.0mph /  27.4km/h 47% 0.00in /  0mm
15:24 70.8 °F /  21.6 °C 50.1 °F /  10.1 °C 29.86in /  1011.1hPa WSW 13.0mph /  20.9km/h 19.0mph /  30.6km/h 48% 0.00in /  0mm
15:29 70.3 °F /  21.3 °C 50.2 °F /  10.1 °C 29.87in /  1011.4hPa WNW 13.0mph /  20.9km/h 20.0mph /  32.2km/h 49% 0.00in /  0mm
15:39 69.0 °F /  20.6 °C 51.2 °F /  10.7 °C 29.86in /  1011.1hPa SW 7.0mph /  11.3km/h 18.0mph /  29km/h 53% 0.00in /  0mm
15:44 69.5 °F /  20.8 °C 51.6 °F /  10.9 °C 29.86in /  1011.1hPa WSW 9.0mph /  14.5km/h 18.0mph /  29km/h 53% 0.00in /  0mm
15:49 69.1 °F /  20.6 °C 51.8 °F /  11 °C 29.86in /  1011.1hPa WSW 9.0mph /  14.5km/h 17.0mph /  27.4km/h 54% 0.00in /  0mm
15:54 68.4 °F /  20.2 °C 51.6 °F /  10.9 °C 29.86in /  1011.1hPa WSW 10.0mph /  16.1km/h 21.0mph /  33.8km/h 55% 0.00in /  0mm
15:59 68.7 °F /  20.4 °C 51.4 °F /  10.8 °C 29.86in /  1011.1hPa WNW 13.0mph /  20.9km/h 22.0mph /  35.4km/h 54% 0.00in /  0mm
16:04 69.0 °F /  20.6 °C 52.6 °F /  11.4 °C 29.86in /  1011.1hPa SW 4.0mph /  6.4km/h 18.0mph /  29km/h 56% 0.00in /  0mm
16:09 68.7 °F /  20.4 °C 51.4 °F /  10.8 °C 29.86in /  1011.1hPa West 12.0mph /  19.3km/h 20.0mph /  32.2km/h 54% 0.00in /  0mm
16:14 68.9 °F /  20.5 °C 53.0 °F /  11.7 °C 29.86in /  1011.1hPa WSW 10.0mph /  16.1km/h 20.0mph /  32.2km/h 57% 0.00in /  0mm
16:19 68.9 °F /  20.5 °C 52.6 °F /  11.4 °C 29.86in /  1011.1hPa WSW 10.0mph /  16.1km/h 19.0mph /  30.6km/h 56% 0.00in /  0mm
16:24 69.2 °F /  20.7 °C 52.3 °F /  11.3 °C 29.86in /  1011.1hPa WSW 10.0mph /  16.1km/h 22.0mph /  35.4km/h 55% 0.00in /  0mm
16:29 69.5 °F /  20.8 °C 53.1 °F /  11.7 °C 29.86in /  1011.1hPa WSW 6.0mph /  9.7km/h 15.0mph /  24.1km/h 56% 0.00in /  0mm
16:34 69.5 °F /  20.8 °C 52.6 °F /  11.4 °C 29.86in /  1011.1hPa West 9.0mph /  14.5km/h 19.0mph /  30.6km/h 55% 0.00in /  0mm
16:39 68.8 °F /  20.4 °C 52.0 °F /  11.1 °C 29.86in /  1011.1hPa WNW 14.0mph /  22.5km/h 20.0mph /  32.2km/h 55% 0.00in /  0mm
16:44 69.0 °F /  20.6 °C 51.7 °F /  10.9 °C 29.86in /  1011.1hPa WSW 10.0mph /  16.1km/h 20.0mph /  32.2km/h 54% 0.00in /  0mm
16:49 68.9 °F /  20.5 °C 53.5 °F /  11.9 °C 29.86in /  1011.1hPa WSW 9.0mph /  14.5km/h 19.0mph /  30.6km/h 58% 0.00in /  0mm
16:54 68.5 °F /  20.3 °C 52.2 °F /  11.2 °C 29.86in /  1011.1hPa WSW 9.0mph /  14.5km/h 22.0mph /  35.4km/h 56% 0.00in /  0mm
16:59 68.7 °F /  20.4 °C 51.9 °F /  11.1 °C 29.85in /  1010.7hPa SW 9.0mph /  14.5km/h 16.0mph /  25.7km/h 55% 0.00in /  0mm
17:04 68.6 °F /  20.3 °C 51.3 °F /  10.7 °C 29.85in /  1010.7hPa SW 5.0mph /  8km/h 19.0mph /  30.6km/h 54% 0.00in /  0mm
17:09 69.0 °F /  20.6 °C 51.2 °F /  10.7 °C 29.85in /  1010.7hPa SW 11.0mph /  17.7km/h 17.0mph /  27.4km/h 53% 0.00in /  0mm
17:14 68.9 °F /  20.5 °C 49.5 °F /  9.7 °C 29.85in /  1010.7hPa WSW 9.0mph /  14.5km/h 18.0mph /  29km/h 50% 0.00in /  0mm
17:19 68.8 °F /  20.4 °C 49.9 °F /  9.9 °C 29.85in /  1010.7hPa WSW 10.0mph /  16.1km/h 20.0mph /  32.2km/h 51% 0.00in /  0mm
17:24 68.7 °F /  20.4 °C 49.8 °F /  9.9 °C 29.85in /  1010.7hPa WSW 9.0mph /  14.5km/h 21.0mph /  33.8km/h 51% 0.00in /  0mm
17:29 68.4 °F /  20.2 °C 50.6 °F /  10.3 °C 29.85in /  1010.7hPa SW 9.0mph /  14.5km/h 21.0mph /  33.8km/h 53% 0.00in /  0mm
17:34 68.1 °F /  20.1 °C 50.3 °F /  10.2 °C 29.85in /  1010.7hPa WSW 9.0mph /  14.5km/h 22.0mph /  35.4km/h 53% 0.00in /  0mm
17:39 67.7 °F /  19.8 °C 50.5 °F /  10.3 °C 29.85in /  1010.7hPa SW 7.0mph /  11.3km/h 18.0mph /  29km/h 54% 0.00in /  0mm
17:44 67.9 °F /  19.9 °C 51.1 °F /  10.6 °C 29.85in /  1010.7hPa WSW 8.0mph /  12.9km/h 22.0mph /  35.4km/h 55% 0.00in /  0mm
17:49 67.6 °F /  19.8 °C 50.4 °F /  10.2 °C 29.85in /  1010.7hPa WNW 6.0mph /  9.7km/h 19.0mph /  30.6km/h 54% 0.00in /  0mm
17:54 67.1 °F /  19.5 °C 50.9 °F /  10.5 °C 29.85in /  1010.7hPa West 8.0mph /  12.9km/h 17.0mph /  27.4km/h 56% 0.00in /  0mm
17:59 67.1 °F /  19.5 °C 50.9 °F /  10.5 °C 29.85in /  1010.7hPa SW 6.0mph /  9.7km/h 17.0mph /  27.4km/h 56% 0.00in /  0mm
18:04 67.2 °F /  19.6 °C 51.0 °F /  10.6 °C 29.85in /  1010.7hPa WSW 6.0mph /  9.7km/h 20.0mph /  32.2km/h 56% 0.00in /  0mm
18:09 67.0 °F /  19.4 °C 50.8 °F /  10.4 °C 29.85in /  1010.7hPa SW 9.0mph /  14.5km/h 16.0mph /  25.7km/h 56% 0.00in /  0mm
18:14 66.6 °F /  19.2 °C 50.9 °F /  10.5 °C 29.85in /  1010.7hPa WSW 9.0mph /  14.5km/h 19.0mph /  30.6km/h 57% 0.00in /  0mm
18:19 66.4 °F /  19.1 °C 51.6 °F /  10.9 °C 29.85in /  1010.7hPa WSW 9.0mph /  14.5km/h 19.0mph /  30.6km/h 59% 0.00in /  0mm
18:24 66.3 °F /  19.1 °C 51.5 °F /  10.8 °C 29.85in /  1010.7hPa WSW 8.0mph /  12.9km/h 15.0mph /  24.1km/h 59% 0.00in /  0mm
18:29 66.1 °F /  18.9 °C 51.4 °F /  10.8 °C 29.85in /  1010.7hPa WSW 8.0mph /  12.9km/h 16.0mph /  25.7km/h 59% 0.00in /  0mm
18:34 66.0 °F /  18.9 °C 51.3 °F /  10.7 °C 29.85in /  1010.7hPa WSW 8.0mph /  12.9km/h 17.0mph /  27.4km/h 59% 0.00in /  0mm
18:39 65.7 °F /  18.7 °C 51.4 °F /  10.8 °C 29.85in /  1010.7hPa SW 12.0mph /  19.3km/h 16.0mph /  25.7km/h 60% 0.00in /  0mm
18:44 65.7 °F /  18.7 °C 51.0 °F /  10.6 °C 29.86in /  1011.1hPa WSW 8.0mph /  12.9km/h 15.0mph /  24.1km/h 59% 0.00in /  0mm
18:49 65.8 °F /  18.8 °C 51.1 °F /  10.6 °C 29.86in /  1011.1hPa WSW 8.0mph /  12.9km/h 19.0mph /  30.6km/h 59% 0.00in /  0mm
18:54 65.8 °F /  18.8 °C 51.1 °F /  10.6 °C 29.86in /  1011.1hPa WSW 5.0mph /  8km/h 15.0mph /  24.1km/h 59% 0.00in /  0mm
18:59 65.7 °F /  18.7 °C 50.5 °F /  10.3 °C 29.86in /  1011.1hPa SW 6.0mph /  9.7km/h 16.0mph /  25.7km/h 58% 0.00in /  0mm
19:04 65.4 °F /  18.6 °C 50.7 °F /  10.4 °C 29.86in /  1011.1hPa NW 7.0mph /  11.3km/h 16.0mph /  25.7km/h 59% 0.00in /  0mm
19:09 65.2 °F /  18.4 °C 50.5 °F /  10.3 °C 29.86in /  1011.1hPa WSW 6.0mph /  9.7km/h 15.0mph /  24.1km/h 59% 0.00in /  0mm
19:14 64.8 °F /  18.2 °C 51.0 °F /  10.6 °C 29.86in /  1011.1hPa WNW 9.0mph /  14.5km/h 14.0mph /  22.5km/h 61% 0.00in /  0mm
19:19 64.4 °F /  18 °C 51.1 °F /  10.6 °C 29.86in /  1011.1hPa WSW 9.0mph /  14.5km/h 16.0mph /  25.7km/h 62% 0.00in /  0mm
19:24 64.3 °F /  17.9 °C 51.0 °F /  10.6 °C 29.86in /  1011.1hPa SW 8.0mph /  12.9km/h 16.0mph /  25.7km/h 62% 0.00in /  0mm
19:29 64.1 °F /  17.8 °C 51.2 °F /  10.7 °C 29.86in /  1011.1hPa SW 14.0mph /  22.5km/h 16.0mph /  25.7km/h 63% 0.00in /  0mm
19:34 63.9 °F /  17.7 °C 51.1 °F /  10.6 °C 29.86in /  1011.1hPa WSW 10.0mph /  16.1km/h 15.0mph /  24.1km/h 63% 0.00in /  0mm
19:39 63.8 °F /  17.7 °C 51.0 °F /  10.6 °C 29.86in /  1011.1hPa SW 6.0mph /  9.7km/h 15.0mph /  24.1km/h 63% 0.00in /  0mm
19:44 63.7 °F /  17.6 °C 50.9 °F /  10.5 °C 29.86in /  1011.1hPa SSW 7.0mph /  11.3km/h 16.0mph /  25.7km/h 63% 0.00in /  0mm
19:49 63.6 °F /  17.6 °C 51.2 °F /  10.7 °C 29.87in /  1011.4hPa WSW 7.0mph /  11.3km/h 16.0mph /  25.7km/h 64% 0.00in /  0mm
19:54 63.4 °F /  17.4 °C 51.0 °F /  10.6 °C 29.86in /  1011.1hPa WSW 6.0mph /  9.7km/h 13.0mph /  20.9km/h 64% 0.00in /  0mm
19:59 63.1 °F /  17.3 °C 50.7 °F /  10.4 °C 29.86in /  1011.1hPa WSW 6.0mph /  9.7km/h 11.0mph /  17.7km/h 64% 0.00in /  0mm
20:04 63.0 °F /  17.2 °C 51.0 °F /  10.6 °C 29.86in /  1011.1hPa WSW 6.0mph /  9.7km/h 12.0mph /  19.3km/h 65% 0.00in /  0mm
20:09 62.7 °F /  17.1 °C 51.2 °F /  10.7 °C 29.86in /  1011.1hPa WSW 6.0mph /  9.7km/h 12.0mph /  19.3km/h 66% 0.00in /  0mm
20:14 62.4 °F /  16.9 °C 50.9 °F /  10.5 °C 29.86in /  1011.1hPa WSW 6.0mph /  9.7km/h 13.0mph /  20.9km/h 66% 0.00in /  0mm
20:19 62.1 °F /  16.7 °C 51.0 °F /  10.6 °C 29.86in /  1011.1hPa WSW 5.0mph /  8km/h 13.0mph /  20.9km/h 67% 0.00in /  0mm
20:24 62.1 °F /  16.7 °C 51.0 °F /  10.6 °C 29.86in /  1011.1hPa WNW 2.0mph /  3.2km/h 12.0mph /  19.3km/h 67% 0.00in /  0mm
20:29 61.9 °F /  16.6 °C 50.8 °F /  10.4 °C 29.86in /  1011.1hPa West 2.0mph /  3.2km/h 9.0mph /  14.5km/h 67% 0.00in /  0mm
20:34 61.9 °F /  16.6 °C 50.8 °F /  10.4 °C 29.86in /  1011.1hPa WSW 4.0mph /  6.4km/h 7.0mph /  11.3km/h 67% 0.00in /  0mm
20:39 61.8 °F /  16.6 °C 51.1 °F /  10.6 °C 29.86in /  1011.1hPa WSW 2.0mph /  3.2km/h 7.0mph /  11.3km/h 68% 0.00in /  0mm
20:44 62.0 °F /  16.7 °C 50.9 °F /  10.5 °C 29.86in /  1011.1hPa WNW 4.0mph /  6.4km/h 9.0mph /  14.5km/h 67% 0.00in /  0mm
20:49 62.1 °F /  16.7 °C 50.6 °F /  10.3 °C 29.86in /  1011.1hPa WSW 4.0mph /  6.4km/h 9.0mph /  14.5km/h 66% 0.00in /  0mm
20:54 62.2 °F /  16.8 °C 50.3 °F /  10.2 °C 29.86in /  1011.1hPa WSW 3.0mph /  4.8km/h 9.0mph /  14.5km/h 65% 0.00in /  0mm
20:59 62.2 °F /  16.8 °C 50.3 °F /  10.2 °C 29.87in /  1011.4hPa WSW 3.0mph /  4.8km/h 9.0mph /  14.5km/h 65% 0.00in /  0mm
21:04 62.2 °F /  16.8 °C 50.3 °F /  10.2 °C 29.87in /  1011.4hPa WSW 3.0mph /  4.8km/h 7.0mph /  11.3km/h 65% 0.00in /  0mm
21:09 62.1 °F /  16.7 °C 49.8 °F /  9.9 °C 29.87in /  1011.4hPa WSW 3.0mph /  4.8km/h 7.0mph /  11.3km/h 64% 0.00in /  0mm
21:14 62.2 °F /  16.8 °C 49.9 °F /  9.9 °C 29.87in /  1011.4hPa West 7.0mph /  11.3km/h 8.0mph /  12.9km/h 64% 0.00in /  0mm
21:19 62.3 °F /  16.8 °C 49.5 °F /  9.7 °C 29.87in /  1011.4hPa SW 4.0mph /  6.4km/h 9.0mph /  14.5km/h 63% 0.00in /  0mm
21:24 62.3 °F /  16.8 °C 50.0 °F /  10 °C 29.88in /  1011.7hPa WSW 3.0mph /  4.8km/h 9.0mph /  14.5km/h 64% 0.00in /  0mm
21:29 61.9 °F /  16.6 °C 50.4 °F /  10.2 °C 29.88in /  1011.7hPa West 4.0mph /  6.4km/h 7.0mph /  11.3km/h 66% 0.00in /  0mm
21:34 61.8 °F /  16.6 °C 50.3 °F /  10.2 °C 29.88in /  1011.7hPa SW 3.0mph /  4.8km/h 7.0mph /  11.3km/h 66% 0.00in /  0mm
21:39 61.4 °F /  16.3 °C 50.3 °F /  10.2 °C 29.88in /  1011.7hPa SW 4.0mph /  6.4km/h 7.0mph /  11.3km/h 67% 0.00in /  0mm
21:49 60.7 °F /  15.9 °C 51.2 °F /  10.7 °C 29.89in /  1012.1hPa SW 3.0mph /  4.8km/h 6.0mph /  9.7km/h 71% 0.00in /  0mm
21:54 60.6 °F /  15.9 °C 51.1 °F /  10.6 °C 29.88in /  1011.7hPa SW 3.0mph /  4.8km/h 8.0mph /  12.9km/h 71% 0.00in /  0mm
21:59 60.4 °F /  15.8 °C 51.3 °F /  10.7 °C 29.88in /  1011.7hPa SW 3.0mph /  4.8km/h 8.0mph /  12.9km/h 72% 0.00in /  0mm
22:04 60.4 °F /  15.8 °C 51.7 °F /  10.9 °C 29.89in /  1012.1hPa WSW 3.0mph /  4.8km/h 7.0mph /  11.3km/h 73% 0.00in /  0mm
22:09 60.2 °F /  15.7 °C 51.5 °F /  10.8 °C 29.89in /  1012.1hPa SW 3.0mph /  4.8km/h 7.0mph /  11.3km/h 73% 0.00in /  0mm
22:14 60.0 °F /  15.6 °C 52.1 °F /  11.2 °C 29.89in /  1012.1hPa SW 3.0mph /  4.8km/h 7.0mph /  11.3km/h 75% 0.00in /  0mm
22:19 59.9 °F /  15.5 °C 52.0 °F /  11.1 °C 29.89in /  1012.1hPa SSW 2.0mph /  3.2km/h 6.0mph /  9.7km/h 75% 0.00in /  0mm
22:24 59.8 °F /  15.4 °C 51.9 °F /  11.1 °C 29.89in /  1012.1hPa WSW 3.0mph /  4.8km/h 6.0mph /  9.7km/h 75% 0.00in /  0mm
22:29 59.7 °F /  15.4 °C 51.8 °F /  11 °C 29.90in /  1012.4hPa West 1.0mph /  1.6km/h 7.0mph /  11.3km/h 75% 0.00in /  0mm
22:34 59.9 °F /  15.5 °C 52.0 °F /  11.1 °C 29.90in /  1012.4hPa SW 2.0mph /  3.2km/h 4.0mph /  6.4km/h 75% 0.00in /  0mm
22:39 59.9 °F /  15.5 °C 52.0 °F /  11.1 °C 29.90in /  1012.4hPa SW 2.0mph /  3.2km/h 5.0mph /  8km/h 75% 0.00in /  0mm
22:44 59.9 °F /  15.5 °C 52.0 °F /  11.1 °C 29.90in /  1012.4hPa SW 3.0mph /  4.8km/h 4.0mph /  6.4km/h 75% 0.00in /  0mm
22:49 59.8 °F /  15.4 °C 51.9 °F /  11.1 °C 29.90in /  1012.4hPa SW 2.0mph /  3.2km/h 4.0mph /  6.4km/h 75% 0.00in /  0mm
22:54 59.7 °F /  15.4 °C 51.8 °F /  11 °C 29.90in /  1012.4hPa SW 3.0mph /  4.8km/h 6.0mph /  9.7km/h 75% 0.00in /  0mm
22:59 59.6 °F /  15.3 °C 52.0 °F /  11.1 °C 29.90in /  1012.4hPa SW 3.0mph /  4.8km/h 6.0mph /  9.7km/h 76% 0.00in /  0mm
23:04 59.5 °F /  15.3 °C 51.9 °F /  11.1 °C 29.90in /  1012.4hPa WSW 2.0mph /  3.2km/h 5.0mph /  8km/h 76% 0.00in /  0mm
23:09 59.2 °F /  15.1 °C 51.6 °F /  10.9 °C 29.90in /  1012.4hPa WSW 1.0mph /  1.6km/h 3.0mph /  4.8km/h 76% 0.00in /  0mm
23:14 58.9 °F /  14.9 °C 51.7 °F /  10.9 °C 29.90in /  1012.4hPa WSW 1.0mph /  1.6km/h 3.0mph /  4.8km/h 77% 0.00in /  0mm
23:19 58.8 °F /  14.9 °C 51.6 °F /  10.9 °C 29.90in /  1012.4hPa Calm   4.0mph /  6.4km/h 77% 0.00in /  0mm
23:24 58.7 °F /  14.8 °C 51.5 °F /  10.8 °C 29.90in /  1012.4hPa WSW 3.0mph /  4.8km/h 4.0mph /  6.4km/h 77% 0.00in /  0mm
23:29 58.5 °F /  14.7 °C 51.7 °F /  10.9 °C 29.90in /  1012.4hPa Calm   5.0mph /  8km/h 78% 0.00in /  0mm
23:34 58.2 °F /  14.6 °C 51.4 °F /  10.8 °C 29.90in /  1012.4hPa Calm     78% 0.00in /  0mm
23:39 58.1 °F /  14.5 °C 51.3 °F /  10.7 °C 29.90in /  1012.4hPa Calm     78% 0.00in /  0mm
23:44 57.8 °F /  14.3 °C 51.3 °F /  10.7 °C 29.90in /  1012.4hPa Calm     79% 0.00in /  0mm
23:49 57.5 °F /  14.2 °C 51.0 °F /  10.6 °C 29.91in /  1012.8hPa Calm     79% 0.00in /  0mm
23:54 57.5 °F /  14.2 °C 51.4 °F /  10.8 °C 29.91in /  1012.8hPa Calm   2.0mph /  3.2km/h 80% 0.00in /  0mm
23:59 57.6 °F /  14.2 °C 51.5 °F /  10.8 °C 29.91in /  1012.8hPa Calm   2.0mph /  3.2km/h 80% 0.00in /  0mm
Buffalo, New York, USA
Compliments of Weather Underground - 2.5 mb